sensor_id;sensor_type;location;lat;lon;timestamp;temperature;humidity
23748;DHT22;12054;53.662;10.126;2023-02-05T00:01:33;1.40;99.90
23748;DHT22;12054;53.662;10.126;2023-02-05T00:03:59;1.40;99.90
23748;DHT22;12054;53.662;10.126;2023-02-05T00:06:24;1.40;99.90
23748;DHT22;12054;53.662;10.126;2023-02-05T00:08:50;1.30;99.90
23748;DHT22;12054;53.662;10.126;2023-02-05T00:11:16;1.30;99.90
23748;DHT22;12054;53.662;10.126;2023-02-05T00:13:42;1.30;99.90
23748;DHT22;12054;53.662;10.126;2023-02-05T00:16:13;1.30;99.90
23748;DHT22;12054;53.662;10.126;2023-02-05T00:18:39;1.30;99.90
23748;DHT22;12054;53.662;10.126;2023-02-05T00:21:05;1.20;99.90
23748;DHT22;12054;53.662;10.126;2023-02-05T00:23:32;1.20;99.90
23748;DHT22;12054;53.662;10.126;2023-02-05T00:25:57;1.20;99.90
23748;DHT22;12054;53.662;10.126;2023-02-05T00:28:23;1.20;99.90
23748;DHT22;12054;53.662;10.126;2023-02-05T00:30:48;1.20;99.90
23748;DHT22;12054;53.662;10.126;2023-02-05T00:33:14;1.20;99.90
23748;DHT22;12054;53.662;10.126;2023-02-05T00:35:42;1.20;99.90
23748;DHT22;12054;53.662;10.126;2023-02-05T00:38:07;1.10;99.90
23748;DHT22;12054;53.662;10.126;2023-02-05T00:40:33;1.10;99.90
23748;DHT22;12054;53.662;10.126;2023-02-05T00:42:58;1.10;99.90
23748;DHT22;12054;53.662;10.126;2023-02-05T00:45:24;1.00;99.90
23748;DHT22;12054;53.662;10.126;2023-02-05T00:47:49;1.00;99.90
23748;DHT22;12054;53.662;10.126;2023-02-05T00:50:15;1.00;99.90
23748;DHT22;12054;53.662;10.126;2023-02-05T00:52:41;0.90;99.90
23748;DHT22;12054;53.662;10.126;2023-02-05T00:55:06;0.90;99.90
23748;DHT22;12054;53.662;10.126;2023-02-05T00:57:32;0.90;99.90
23748;DHT22;12054;53.662;10.126;2023-02-05T00:59:58;0.90;99.90
23748;DHT22;12054;53.662;10.126;2023-02-05T01:02:23;0.90;99.90
23748;DHT22;12054;53.662;10.126;2023-02-05T01:04:50;0.90;99.90
23748;DHT22;12054;53.662;10.126;2023-02-05T01:07:20;0.90;99.90
23748;DHT22;12054;53.662;10.126;2023-02-05T01:09:45;0.80;99.90
23748;DHT22;12054;53.662;10.126;2023-02-05T01:12:11;0.80;99.90
23748;DHT22;12054;53.662;10.126;2023-02-05T01:14:39;0.80;99.90
23748;DHT22;12054;53.662;10.126;2023-02-05T01:17:05;0.80;99.90
23748;DHT22;12054;53.662;10.126;2023-02-05T01:19:33;0.80;99.90
23748;DHT22;12054;53.662;10.126;2023-02-05T01:21:58;0.80;99.90
23748;DHT22;12054;53.662;10.126;2023-02-05T01:24:24;0.80;99.90
23748;DHT22;12054;53.662;10.126;2023-02-05T01:26:49;0.70;99.90
23748;DHT22;12054;53.662;10.126;2023-02-05T01:29:15;0.70;99.90
23748;DHT22;12054;53.662;10.126;2023-02-05T01:31:41;0.70;99.90
23748;DHT22;12054;53.662;10.126;2023-02-05T01:34:06;0.70;99.90
23748;DHT22;12054;53.662;10.126;2023-02-05T01:36:32;0.60;99.90
23748;DHT22;12054;53.662;10.126;2023-02-05T01:38:57;0.60;99.90
23748;DHT22;12054;53.662;10.126;2023-02-05T01:41:23;0.60;99.90
23748;DHT22;12054;53.662;10.126;2023-02-05T01:44:09;0.60;99.90
23748;DHT22;12054;53.662;10.126;2023-02-05T01:46:38;0.60;99.90
23748;DHT22;12054;53.662;10.126;2023-02-05T01:49:05;0.60;99.90
23748;DHT22;12054;53.662;10.126;2023-02-05T01:51:32;0.50;99.90
23748;DHT22;12054;53.662;10.126;2023-02-05T01:53:59;0.50;99.90
23748;DHT22;12054;53.662;10.126;2023-02-05T01:56:31;0.50;99.90
23748;DHT22;12054;53.662;10.126;2023-02-05T01:59:04;0.50;99.90
23748;DHT22;12054;53.662;10.126;2023-02-05T02:01:31;0.50;99.90
23748;DHT22;12054;53.662;10.126;2023-02-05T02:03:59;0.50;99.90
23748;DHT22;12054;53.662;10.126;2023-02-05T02:06:25;0.50;99.90
23748;DHT22;12054;53.662;10.126;2023-02-05T02:08:51;0.50;99.90
23748;DHT22;12054;53.662;10.126;2023-02-05T02:11:19;0.50;99.90
23748;DHT22;12054;53.662;10.126;2023-02-05T02:13:46;0.50;99.90
23748;DHT22;12054;53.662;10.126;2023-02-05T02:16:14;0.50;99.90
23748;DHT22;12054;53.662;10.126;2023-02-05T02:18:40;0.40;99.90
23748;DHT22;12054;53.662;10.126;2023-02-05T02:23:51;0.50;99.90
23748;DHT22;12054;53.662;10.126;2023-02-05T02:29:36;0.50;99.90
23748;DHT22;12054;53.662;10.126;2023-02-05T02:32:36;0.50;99.90
23748;DHT22;12054;53.662;10.126;2023-02-05T02:37:59;0.50;99.90
23748;DHT22;12054;53.662;10.126;2023-02-05T02:45:33;0.50;99.90
23748;DHT22;12054;53.662;10.126;2023-02-05T02:47:59;0.40;99.90
23748;DHT22;12054;53.662;10.126;2023-02-05T02:50:29;0.40;99.90
23748;DHT22;12054;53.662;10.126;2023-02-05T02:53:02;0.40;99.90
23748;DHT22;12054;53.662;10.126;2023-02-05T02:55:32;0.50;99.90
23748;DHT22;12054;53.662;10.126;2023-02-05T02:58:00;0.50;99.90
23748;DHT22;12054;53.662;10.126;2023-02-05T03:00:27;0.50;99.90
23748;DHT22;12054;53.662;10.126;2023-02-05T03:02:59;0.50;99.90
23748;DHT22;12054;53.662;10.126;2023-02-05T03:05:27;0.50;99.90
23748;DHT22;12054;53.662;10.126;2023-02-05T03:08:08;0.50;99.90
23748;DHT22;12054;53.662;10.126;2023-02-05T03:10:48;0.50;99.90
23748;DHT22;12054;53.662;10.126;2023-02-05T03:13:15;0.50;99.90
23748;DHT22;12054;53.662;10.126;2023-02-05T03:15:43;0.50;99.90
23748;DHT22;12054;53.662;10.126;2023-02-05T03:18:09;0.50;99.90
23748;DHT22;12054;53.662;10.126;2023-02-05T03:20:40;0.50;99.90
23748;DHT22;12054;53.662;10.126;2023-02-05T03:23:07;0.50;99.90
23748;DHT22;12054;53.662;10.126;2023-02-05T03:25:32;0.50;99.90
23748;DHT22;12054;53.662;10.126;2023-02-05T03:27:58;0.50;99.90
23748;DHT22;12054;53.662;10.126;2023-02-05T03:30:29;0.50;99.90
23748;DHT22;12054;53.662;10.126;2023-02-05T03:33:07;0.50;99.90
23748;DHT22;12054;53.662;10.126;2023-02-05T03:38:57;0.50;99.90
23748;DHT22;12054;53.662;10.126;2023-02-05T03:41:45;0.50;99.90
23748;DHT22;12054;53.662;10.126;2023-02-05T03:44:24;0.40;99.90
23748;DHT22;12054;53.662;10.126;2023-02-05T03:47:02;0.50;99.90
23748;DHT22;12054;53.662;10.126;2023-02-05T03:49:46;0.40;99.90
23748;DHT22;12054;53.662;10.126;2023-02-05T03:52:21;0.40;99.90
23748;DHT22;12054;53.662;10.126;2023-02-05T03:55:11;0.40;99.90
23748;DHT22;12054;53.662;10.126;2023-02-05T03:58:05;0.40;99.90
23748;DHT22;12054;53.662;10.126;2023-02-05T04:00:33;0.40;99.90
23748;DHT22;12054;53.662;10.126;2023-02-05T04:02:59;0.40;99.90
23748;DHT22;12054;53.662;10.126;2023-02-05T04:05:25;0.40;99.90
23748;DHT22;12054;53.662;10.126;2023-02-05T04:07:51;0.40;99.90
23748;DHT22;12054;53.662;10.126;2023-02-05T04:10:18;0.40;99.90
23748;DHT22;12054;53.662;10.126;2023-02-05T04:12:43;0.40;99.90
23748;DHT22;12054;53.662;10.126;2023-02-05T04:15:09;0.40;99.90
23748;DHT22;12054;53.662;10.126;2023-02-05T04:17:36;0.40;99.90
23748;DHT22;12054;53.662;10.126;2023-02-05T04:20:03;0.40;99.90
23748;DHT22;12054;53.662;10.126;2023-02-05T04:22:29;0.40;99.90
23748;DHT22;12054;53.662;10.126;2023-02-05T04:24:54;0.40;99.90
23748;DHT22;12054;53.662;10.126;2023-02-05T04:27:20;0.40;99.90
23748;DHT22;12054;53.662;10.126;2023-02-05T04:29:45;0.40;99.90
23748;DHT22;12054;53.662;10.126;2023-02-05T04:32:11;0.40;99.90
23748;DHT22;12054;53.662;10.126;2023-02-05T04:34:36;0.40;99.90
23748;DHT22;12054;53.662;10.126;2023-02-05T04:37:02;0.40;99.90
23748;DHT22;12054;53.662;10.126;2023-02-05T04:39:27;0.40;99.90
23748;DHT22;12054;53.662;10.126;2023-02-05T04:41:53;0.40;99.90
23748;DHT22;12054;53.662;10.126;2023-02-05T04:44:19;0.40;99.90
23748;DHT22;12054;53.662;10.126;2023-02-05T04:46:44;0.40;99.90
23748;DHT22;12054;53.662;10.126;2023-02-05T04:49:10;0.30;99.90
23748;DHT22;12054;53.662;10.126;2023-02-05T04:51:39;0.30;99.90
23748;DHT22;12054;53.662;10.126;2023-02-05T04:54:05;0.30;99.90
23748;DHT22;12054;53.662;10.126;2023-02-05T04:56:30;0.30;99.90
23748;DHT22;12054;53.662;10.126;2023-02-05T04:58:56;0.30;99.90
23748;DHT22;12054;53.662;10.126;2023-02-05T05:01:22;0.30;99.90
23748;DHT22;12054;53.662;10.126;2023-02-05T05:03:48;0.30;99.90
23748;DHT22;12054;53.662;10.126;2023-02-05T05:06:15;0.30;99.90
23748;DHT22;12054;53.662;10.126;2023-02-05T05:08:41;0.30;99.90
23748;DHT22;12054;53.662;10.126;2023-02-05T05:11:08;0.30;99.90
23748;DHT22;12054;53.662;10.126;2023-02-05T05:13:34;0.30;99.90
23748;DHT22;12054;53.662;10.126;2023-02-05T05:16:00;0.30;99.90
23748;DHT22;12054;53.662;10.126;2023-02-05T05:18:26;0.30;99.90
23748;DHT22;12054;53.662;10.126;2023-02-05T05:20:53;0.40;99.90
23748;DHT22;12054;53.662;10.126;2023-02-05T05:23:18;0.40;99.90
23748;DHT22;12054;53.662;10.126;2023-02-05T05:25:46;0.40;99.90
23748;DHT22;12054;53.662;10.126;2023-02-05T05:28:12;0.40;99.90
23748;DHT22;12054;53.662;10.126;2023-02-05T05:30:39;0.40;99.90
23748;DHT22;12054;53.662;10.126;2023-02-05T05:33:05;0.40;99.90
23748;DHT22;12054;53.662;10.126;2023-02-05T05:35:31;0.40;99.90
23748;DHT22;12054;53.662;10.126;2023-02-05T05:37:57;0.40;99.90
23748;DHT22;12054;53.662;10.126;2023-02-05T05:40:23;0.40;99.90
23748;DHT22;12054;53.662;10.126;2023-02-05T05:43:12;0.40;99.90
23748;DHT22;12054;53.662;10.126;2023-02-05T05:45:56;0.40;99.90
23748;DHT22;12054;53.662;10.126;2023-02-05T05:48:21;0.40;99.90
23748;DHT22;12054;53.662;10.126;2023-02-05T05:50:47;0.40;99.90
23748;DHT22;12054;53.662;10.126;2023-02-05T05:53:13;0.40;99.90
23748;DHT22;12054;53.662;10.126;2023-02-05T05:55:38;0.40;99.90
23748;DHT22;12054;53.662;10.126;2023-02-05T05:58:04;0.40;99.90
23748;DHT22;12054;53.662;10.126;2023-02-05T06:00:30;0.40;99.90
23748;DHT22;12054;53.662;10.126;2023-02-05T06:02:55;0.50;99.90
23748;DHT22;12054;53.662;10.126;2023-02-05T06:05:21;0.40;99.90
23748;DHT22;12054;53.662;10.126;2023-02-05T06:07:46;0.50;99.90
23748;DHT22;12054;53.662;10.126;2023-02-05T06:10:12;0.50;99.90
23748;DHT22;12054;53.662;10.126;2023-02-05T06:12:38;0.50;99.90
23748;DHT22;12054;53.662;10.126;2023-02-05T06:15:04;0.50;99.90
23748;DHT22;12054;53.662;10.126;2023-02-05T06:17:30;0.50;99.90
23748;DHT22;12054;53.662;10.126;2023-02-05T06:19:57;0.50;99.90
23748;DHT22;12054;53.662;10.126;2023-02-05T06:22:22;0.50;99.90
23748;DHT22;12054;53.662;10.126;2023-02-05T06:24:48;0.40;99.90
23748;DHT22;12054;53.662;10.126;2023-02-05T06:27:13;0.40;99.90
23748;DHT22;12054;53.662;10.126;2023-02-05T06:29:39;0.40;99.90
23748;DHT22;12054;53.662;10.126;2023-02-05T06:32:05;0.40;99.90
23748;DHT22;12054;53.662;10.126;2023-02-05T06:34:31;0.40;99.90
23748;DHT22;12054;53.662;10.126;2023-02-05T06:36:56;0.40;99.90
23748;DHT22;12054;53.662;10.126;2023-02-05T06:39:22;0.50;99.90
23748;DHT22;12054;53.662;10.126;2023-02-05T06:41:47;0.50;99.90
23748;DHT22;12054;53.662;10.126;2023-02-05T06:44:13;0.50;99.90
23748;DHT22;12054;53.662;10.126;2023-02-05T06:46:38;0.50;99.90
23748;DHT22;12054;53.662;10.126;2023-02-05T06:49:04;0.50;99.90
23748;DHT22;12054;53.662;10.126;2023-02-05T06:51:29;0.50;99.90
23748;DHT22;12054;53.662;10.126;2023-02-05T06:53:55;0.50;99.90
23748;DHT22;12054;53.662;10.126;2023-02-05T06:56:22;0.50;99.90
23748;DHT22;12054;53.662;10.126;2023-02-05T06:58:48;0.50;99.90
23748;DHT22;12054;53.662;10.126;2023-02-05T07:01:15;0.60;99.90
23748;DHT22;12054;53.662;10.126;2023-02-05T07:03:41;0.60;99.90
23748;DHT22;12054;53.662;10.126;2023-02-05T07:06:06;0.60;99.90
23748;DHT22;12054;53.662;10.126;2023-02-05T07:08:32;0.60;99.90
23748;DHT22;12054;53.662;10.126;2023-02-05T07:10:58;0.60;99.90
23748;DHT22;12054;53.662;10.126;2023-02-05T07:13:24;0.60;99.90
23748;DHT22;12054;53.662;10.126;2023-02-05T07:15:49;0.60;99.90
23748;DHT22;12054;53.662;10.126;2023-02-05T07:18:15;0.60;99.90
23748;DHT22;12054;53.662;10.126;2023-02-05T07:20:41;0.60;99.90
23748;DHT22;12054;53.662;10.126;2023-02-05T07:23:06;0.60;99.90
23748;DHT22;12054;53.662;10.126;2023-02-05T07:25:32;0.60;99.90
23748;DHT22;12054;53.662;10.126;2023-02-05T07:28:06;0.60;99.90
23748;DHT22;12054;53.662;10.126;2023-02-05T07:30:33;0.60;99.90
23748;DHT22;12054;53.662;10.126;2023-02-05T07:32:58;0.70;99.90
23748;DHT22;12054;53.662;10.126;2023-02-05T07:35:25;0.60;99.90
23748;DHT22;12054;53.662;10.126;2023-02-05T07:37:51;0.60;99.90
23748;DHT22;12054;53.662;10.126;2023-02-05T07:40:17;0.70;99.90
23748;DHT22;12054;53.662;10.126;2023-02-05T07:42:42;0.70;99.90
23748;DHT22;12054;53.662;10.126;2023-02-05T07:45:08;0.70;99.90
23748;DHT22;12054;53.662;10.126;2023-02-05T07:47:33;0.70;99.90
23748;DHT22;12054;53.662;10.126;2023-02-05T07:49:59;0.70;99.90
23748;DHT22;12054;53.662;10.126;2023-02-05T07:52:24;0.70;99.90
23748;DHT22;12054;53.662;10.126;2023-02-05T07:54:50;0.80;99.90
23748;DHT22;12054;53.662;10.126;2023-02-05T07:57:15;0.80;99.90
23748;DHT22;12054;53.662;10.126;2023-02-05T07:59:41;0.80;99.90
23748;DHT22;12054;53.662;10.126;2023-02-05T08:02:09;0.80;99.90
23748;DHT22;12054;53.662;10.126;2023-02-05T08:04:34;0.80;99.90
23748;DHT22;12054;53.662;10.126;2023-02-05T08:07:01;0.80;99.90
23748;DHT22;12054;53.662;10.126;2023-02-05T08:09:26;0.80;99.90
23748;DHT22;12054;53.662;10.126;2023-02-05T08:11:52;0.80;99.90
23748;DHT22;12054;53.662;10.126;2023-02-05T08:14:18;0.80;99.90
23748;DHT22;12054;53.662;10.126;2023-02-05T08:16:43;0.80;99.90
23748;DHT22;12054;53.662;10.126;2023-02-05T08:19:16;0.80;99.90
23748;DHT22;12054;53.662;10.126;2023-02-05T08:21:42;0.80;99.90
23748;DHT22;12054;53.662;10.126;2023-02-05T08:24:09;0.80;99.90
23748;DHT22;12054;53.662;10.126;2023-02-05T08:26:34;0.90;99.90
23748;DHT22;12054;53.662;10.126;2023-02-05T08:29:00;0.80;99.90
23748;DHT22;12054;53.662;10.126;2023-02-05T08:31:26;0.80;99.90
23748;DHT22;12054;53.662;10.126;2023-02-05T08:33:51;0.80;99.90
23748;DHT22;12054;53.662;10.126;2023-02-05T08:36:19;0.80;99.90
23748;DHT22;12054;53.662;10.126;2023-02-05T08:38:45;0.80;99.90
23748;DHT22;12054;53.662;10.126;2023-02-05T08:41:11;0.70;99.90
23748;DHT22;12054;53.662;10.126;2023-02-05T08:43:41;0.80;99.90
23748;DHT22;12054;53.662;10.126;2023-02-05T08:46:09;0.80;99.90
23748;DHT22;12054;53.662;10.126;2023-02-05T08:48:34;0.80;99.90
23748;DHT22;12054;53.662;10.126;2023-02-05T08:51:00;0.90;99.90
23748;DHT22;12054;53.662;10.126;2023-02-05T08:53:26;0.90;99.90
23748;DHT22;12054;53.662;10.126;2023-02-05T08:56:00;0.90;99.90
23748;DHT22;12054;53.662;10.126;2023-02-05T08:58:26;0.90;99.90
23748;DHT22;12054;53.662;10.126;2023-02-05T09:00:52;0.90;99.90
23748;DHT22;12054;53.662;10.126;2023-02-05T09:03:18;0.90;99.90
23748;DHT22;12054;53.662;10.126;2023-02-05T09:05:43;0.90;99.90
23748;DHT22;12054;53.662;10.126;2023-02-05T09:08:09;1.00;99.90
23748;DHT22;12054;53.662;10.126;2023-02-05T09:10:35;1.00;99.90
23748;DHT22;12054;53.662;10.126;2023-02-05T09:13:00;1.00;99.90
23748;DHT22;12054;53.662;10.126;2023-02-05T09:15:26;1.00;99.90
23748;DHT22;12054;53.662;10.126;2023-02-05T09:17:51;1.00;99.90
23748;DHT22;12054;53.662;10.126;2023-02-05T09:20:17;1.00;99.90
23748;DHT22;12054;53.662;10.126;2023-02-05T09:22:42;1.00;99.90
23748;DHT22;12054;53.662;10.126;2023-02-05T09:25:08;1.00;99.90
23748;DHT22;12054;53.662;10.126;2023-02-05T09:27:34;1.10;99.90
23748;DHT22;12054;53.662;10.126;2023-02-05T09:30:00;1.10;99.90
23748;DHT22;12054;53.662;10.126;2023-02-05T09:32:25;1.10;99.90
23748;DHT22;12054;53.662;10.126;2023-02-05T09:34:51;1.10;99.90
23748;DHT22;12054;53.662;10.126;2023-02-05T09:37:17;1.10;99.90
23748;DHT22;12054;53.662;10.126;2023-02-05T09:39:42;1.10;99.90
23748;DHT22;12054;53.662;10.126;2023-02-05T09:42:29;1.10;99.90
23748;DHT22;12054;53.662;10.126;2023-02-05T09:48:36;1.20;99.90
23748;DHT22;12054;53.662;10.126;2023-02-05T09:51:03;1.20;99.90
23748;DHT22;12054;53.662;10.126;2023-02-05T09:53:34;1.30;99.90
23748;DHT22;12054;53.662;10.126;2023-02-05T09:56:03;1.30;99.90
23748;DHT22;12054;53.662;10.126;2023-02-05T09:58:32;1.30;99.90
23748;DHT22;12054;53.662;10.126;2023-02-05T10:01:03;1.40;99.90
23748;DHT22;12054;53.662;10.126;2023-02-05T10:03:45;1.30;99.90
23748;DHT22;12054;53.662;10.126;2023-02-05T10:09:00;1.40;99.90
23748;DHT22;12054;53.662;10.126;2023-02-05T10:12:06;1.50;99.90
23748;DHT22;12054;53.662;10.126;2023-02-05T10:18:09;1.50;99.90
23748;DHT22;12054;53.662;10.126;2023-02-05T10:20:49;1.60;99.90
23748;DHT22;12054;53.662;10.126;2023-02-05T10:26:48;1.70;99.90
23748;DHT22;12054;53.662;10.126;2023-02-05T10:37:56;1.80;99.90
23748;DHT22;12054;53.662;10.126;2023-02-05T10:40:25;1.80;99.90
23748;DHT22;12054;53.662;10.126;2023-02-05T10:42:58;2.00;99.90
23748;DHT22;12054;53.662;10.126;2023-02-05T10:45:26;2.00;99.90
23748;DHT22;12054;53.662;10.126;2023-02-05T10:48:32;2.00;99.90
23748;DHT22;12054;53.662;10.126;2023-02-05T10:51:16;2.00;99.90
23748;DHT22;12054;53.662;10.126;2023-02-05T10:53:43;2.10;99.90
23748;DHT22;12054;53.662;10.126;2023-02-05T10:56:15;2.00;99.90
23748;DHT22;12054;53.662;10.126;2023-02-05T10:58:57;2.10;99.90
23748;DHT22;12054;53.662;10.126;2023-02-05T11:01:29;2.10;99.90
23748;DHT22;12054;53.662;10.126;2023-02-05T11:03:59;2.10;99.90
23748;DHT22;12054;53.662;10.126;2023-02-05T11:06:29;2.10;99.90
23748;DHT22;12054;53.662;10.126;2023-02-05T11:08:56;2.20;99.90
23748;DHT22;12054;53.662;10.126;2023-02-05T11:11:27;2.20;99.90
23748;DHT22;12054;53.662;10.126;2023-02-05T11:14:05;2.20;99.90
23748;DHT22;12054;53.662;10.126;2023-02-05T11:16:42;2.30;99.90
23748;DHT22;12054;53.662;10.126;2023-02-05T11:21:52;2.30;99.90
23748;DHT22;12054;53.662;10.126;2023-02-05T11:26:49;2.30;99.90
23748;DHT22;12054;53.662;10.126;2023-02-05T11:29:19;2.30;99.90
23748;DHT22;12054;53.662;10.126;2023-02-05T11:31:45;2.30;99.90
23748;DHT22;12054;53.662;10.126;2023-02-05T11:34:14;2.40;99.90
23748;DHT22;12054;53.662;10.126;2023-02-05T11:37:09;2.30;99.90
23748;DHT22;12054;53.662;10.126;2023-02-05T11:39:39;2.40;99.90
23748;DHT22;12054;53.662;10.126;2023-02-05T11:42:20;2.40;99.90
23748;DHT22;12054;53.662;10.126;2023-02-05T11:44:56;2.40;99.90
23748;DHT22;12054;53.662;10.126;2023-02-05T11:47:30;2.50;99.90
23748;DHT22;12054;53.662;10.126;2023-02-05T11:49:57;2.50;99.90
23748;DHT22;12054;53.662;10.126;2023-02-05T11:52:29;2.50;99.90
23748;DHT22;12054;53.662;10.126;2023-02-05T11:54:56;2.50;99.90
23748;DHT22;12054;53.662;10.126;2023-02-05T12:02:35;2.60;99.90
23748;DHT22;12054;53.662;10.126;2023-02-05T12:05:25;2.60;99.90
23748;DHT22;12054;53.662;10.126;2023-02-05T12:08:06;2.60;99.90
23748;DHT22;12054;53.662;10.126;2023-02-05T12:13:13;2.60;99.90
23748;DHT22;12054;53.662;10.126;2023-02-05T12:26:48;2.70;99.90
23748;DHT22;12054;53.662;10.126;2023-02-05T12:31:48;2.80;99.90
23748;DHT22;12054;53.662;10.126;2023-02-05T12:34:23;2.70;99.90
23748;DHT22;12054;53.662;10.126;2023-02-05T12:36:59;2.80;99.90
23748;DHT22;12054;53.662;10.126;2023-02-05T12:39:50;2.80;99.90
23748;DHT22;12054;53.662;10.126;2023-02-05T12:42:38;2.80;99.90
23748;DHT22;12054;53.662;10.126;2023-02-05T12:53:34;2.80;99.90
23748;DHT22;12054;53.662;10.126;2023-02-05T12:56:27;2.80;99.90
23748;DHT22;12054;53.662;10.126;2023-02-05T12:59:10;2.80;99.90
23748;DHT22;12054;53.662;10.126;2023-02-05T13:02:28;2.80;99.90
23748;DHT22;12054;53.662;10.126;2023-02-05T13:04:31;2.90;99.90
23748;DHT22;12054;53.662;10.126;2023-02-05T13:07:06;2.90;99.90
23748;DHT22;12054;53.662;10.126;2023-02-05T13:09:52;2.90;99.90
23748;DHT22;12054;53.662;10.126;2023-02-05T13:12:22;2.90;99.90
23748;DHT22;12054;53.662;10.126;2023-02-05T13:17:29;3.00;99.90
23748;DHT22;12054;53.662;10.126;2023-02-05T13:20:00;3.00;99.90
23748;DHT22;12054;53.662;10.126;2023-02-05T13:22:37;3.00;99.90
23748;DHT22;12054;53.662;10.126;2023-02-05T13:25:38;3.00;99.90
23748;DHT22;12054;53.662;10.126;2023-02-05T13:28:36;3.10;99.90
23748;DHT22;12054;53.662;10.126;2023-02-05T13:31:23;3.10;99.90
23748;DHT22;12054;53.662;10.126;2023-02-05T13:33:51;3.10;99.90
23748;DHT22;12054;53.662;10.126;2023-02-05T13:44:31;3.20;99.90
23748;DHT22;12054;53.662;10.126;2023-02-05T13:49:53;3.20;99.90
23748;DHT22;12054;53.662;10.126;2023-02-05T13:55:06;3.20;99.90
23748;DHT22;12054;53.662;10.126;2023-02-05T14:00:23;3.30;99.90
23748;DHT22;12054;53.662;10.126;2023-02-05T14:02:53;3.30;99.90
23748;DHT22;12054;53.662;10.126;2023-02-05T14:05:29;3.30;99.90
23748;DHT22;12054;53.662;10.126;2023-02-05T14:07:56;3.30;99.90
23748;DHT22;12054;53.662;10.126;2023-02-05T14:10:34;3.30;99.90
23748;DHT22;12054;53.662;10.126;2023-02-05T14:13:22;3.30;99.90
23748;DHT22;12054;53.662;10.126;2023-02-05T14:15:49;3.40;99.90
23748;DHT22;12054;53.662;10.126;2023-02-05T14:23:57;3.40;99.90
23748;DHT22;12054;53.662;10.126;2023-02-05T14:29:47;3.40;99.90
23748;DHT22;12054;53.662;10.126;2023-02-05T14:37:46;3.40;99.90
23748;DHT22;12054;53.662;10.126;2023-02-05T14:40:27;3.40;99.90
23748;DHT22;12054;53.662;10.126;2023-02-05T14:42:58;3.50;99.90
23748;DHT22;12054;53.662;10.126;2023-02-05T14:45:25;3.50;99.90
23748;DHT22;12054;53.662;10.126;2023-02-05T14:47:52;3.40;99.90
23748;DHT22;12054;53.662;10.126;2023-02-05T14:50:24;3.50;99.90
23748;DHT22;12054;53.662;10.126;2023-02-05T14:52:55;3.50;99.90
23748;DHT22;12054;53.662;10.126;2023-02-05T14:55:36;3.40;99.90
23748;DHT22;12054;53.662;10.126;2023-02-05T14:58:06;3.40;99.90
23748;DHT22;12054;53.662;10.126;2023-02-05T15:00:39;3.50;99.90
23748;DHT22;12054;53.662;10.126;2023-02-05T15:06:03;3.50;99.90
23748;DHT22;12054;53.662;10.126;2023-02-05T15:08:38;3.50;99.90
23748;DHT22;12054;53.662;10.126;2023-02-05T15:13:33;3.50;99.90
23748;DHT22;12054;53.662;10.126;2023-02-05T15:18:54;3.50;99.90
23748;DHT22;12054;53.662;10.126;2023-02-05T15:21:32;3.50;99.90
23748;DHT22;12054;53.662;10.126;2023-02-05T15:24:21;3.50;99.90
23748;DHT22;12054;53.662;10.126;2023-02-05T15:29:42;3.50;99.90
23748;DHT22;12054;53.662;10.126;2023-02-05T15:32:23;3.50;99.90
23748;DHT22;12054;53.662;10.126;2023-02-05T15:34:57;3.50;99.90
23748;DHT22;12054;53.662;10.126;2023-02-05T15:37:27;3.50;99.90
23748;DHT22;12054;53.662;10.126;2023-02-05T15:40:01;3.50;99.90
23748;DHT22;12054;53.662;10.126;2023-02-05T15:42:31;3.50;99.90
23748;DHT22;12054;53.662;10.126;2023-02-05T15:45:15;3.50;99.90
23748;DHT22;12054;53.662;10.126;2023-02-05T15:47:42;3.50;99.90
23748;DHT22;12054;53.662;10.126;2023-02-05T15:50:12;3.50;99.90
23748;DHT22;12054;53.662;10.126;2023-02-05T15:52:39;3.50;99.90
23748;DHT22;12054;53.662;10.126;2023-02-05T15:55:16;3.50;99.90
23748;DHT22;12054;53.662;10.126;2023-02-05T15:57:43;3.50;99.90
23748;DHT22;12054;53.662;10.126;2023-02-05T16:00:16;3.50;99.90
23748;DHT22;12054;53.662;10.126;2023-02-05T16:02:52;3.40;99.90
23748;DHT22;12054;53.662;10.126;2023-02-05T16:05:20;3.40;99.90
23748;DHT22;12054;53.662;10.126;2023-02-05T16:07:47;3.50;99.90
23748;DHT22;12054;53.662;10.126;2023-02-05T16:10:30;3.40;99.90
23748;DHT22;12054;53.662;10.126;2023-02-05T16:13:11;3.40;99.90
23748;DHT22;12054;53.662;10.126;2023-02-05T16:20:49;3.40;99.90
23748;DHT22;12054;53.662;10.126;2023-02-05T16:23:32;3.40;99.90
23748;DHT22;12054;53.662;10.126;2023-02-05T16:26:03;3.40;99.90
23748;DHT22;12054;53.662;10.126;2023-02-05T16:28:44;3.40;99.90
23748;DHT22;12054;53.662;10.126;2023-02-05T16:31:16;3.50;99.90
23748;DHT22;12054;53.662;10.126;2023-02-05T16:33:53;3.40;99.90
23748;DHT22;12054;53.662;10.126;2023-02-05T16:36:22;3.40;99.90
23748;DHT22;12054;53.662;10.126;2023-02-05T16:38:53;3.40;99.90
23748;DHT22;12054;53.662;10.126;2023-02-05T16:41:25;3.40;99.90
23748;DHT22;12054;53.662;10.126;2023-02-05T16:43:53;3.40;99.90
23748;DHT22;12054;53.662;10.126;2023-02-05T16:46:28;3.40;99.90
23748;DHT22;12054;53.662;10.126;2023-02-05T16:48:59;3.40;99.90
23748;DHT22;12054;53.662;10.126;2023-02-05T16:51:37;3.40;99.90
23748;DHT22;12054;53.662;10.126;2023-02-05T16:57:09;3.40;99.90
23748;DHT22;12054;53.662;10.126;2023-02-05T17:02:28;3.30;99.90
23748;DHT22;12054;53.662;10.126;2023-02-05T17:04:55;3.30;99.90
23748;DHT22;12054;53.662;10.126;2023-02-05T17:07:22;3.30;99.90
23748;DHT22;12054;53.662;10.126;2023-02-05T17:09:48;3.30;99.90
23748;DHT22;12054;53.662;10.126;2023-02-05T17:14:53;3.30;99.90
23748;DHT22;12054;53.662;10.126;2023-02-05T17:17:19;3.30;99.90
23748;DHT22;12054;53.662;10.126;2023-02-05T17:20:04;3.30;99.90
23748;DHT22;12054;53.662;10.126;2023-02-05T17:22:30;3.30;99.90
23748;DHT22;12054;53.662;10.126;2023-02-05T17:24:56;3.30;99.90
23748;DHT22;12054;53.662;10.126;2023-02-05T17:27:36;3.30;99.90
23748;DHT22;12054;53.662;10.126;2023-02-05T17:30:04;3.30;99.90
23748;DHT22;12054;53.662;10.126;2023-02-05T17:32:31;3.30;99.90
23748;DHT22;12054;53.662;10.126;2023-02-05T17:34:57;3.30;99.90
23748;DHT22;12054;53.662;10.126;2023-02-05T17:37:24;3.30;99.90
23748;DHT22;12054;53.662;10.126;2023-02-05T17:39:49;3.30;99.90
23748;DHT22;12054;53.662;10.126;2023-02-05T17:42:21;3.30;99.90
23748;DHT22;12054;53.662;10.126;2023-02-05T17:44:48;3.30;99.90
23748;DHT22;12054;53.662;10.126;2023-02-05T17:47:13;3.30;99.90
23748;DHT22;12054;53.662;10.126;2023-02-05T17:49:39;3.30;99.90
23748;DHT22;12054;53.662;10.126;2023-02-05T17:52:06;3.30;99.90
23748;DHT22;12054;53.662;10.126;2023-02-05T17:54:31;3.30;99.90
23748;DHT22;12054;53.662;10.126;2023-02-05T17:57:02;3.30;99.90
23748;DHT22;12054;53.662;10.126;2023-02-05T17:59:34;3.20;99.90